Latest Weather Observations for Wilcannia Airport

IDN60801

Issued at 2:33 pm EST Sunday 24 July 2016 (issued every 30 minutes, with the page automatically refreshed every 10 minutes)

About weather observations | Map of weather stations | Latest weather observations for NSW | Other Formats
Station Details ID: 046012 Name: WILCANNIA AERODROME AWS Lat: -31.52 Lon: 143.38 Height: 94.3 m
Data from the previous 72 hours. | See also: Recent months at Wilcannia Airport
Date/Time
EST
Temp
°C
App
Temp
°C
Dew
Point
°C
Rel
Hum
%
Delta-T
°C
Wind Press
QNH
hPa
Press
MSL
hPa
Rain since
9am
mm
Dir  Spd
km/h
Gust
km/h
Spd
kts
Gust
kts
24/02:30pm 16.4 8.8 4.1 44 5.8 WNW 33 48 18 26 1012.5 1012.6 0.0
24/02:05pm 17.0 9.5 3.3 40 6.3 NW 32 50 17 27 1012.3 1012.4 0.0
24/02:00pm 17.1 10.6 4.8 44 5.9 NW 28 39 15 21 1012.4 1012.5 0.0
24/01:30pm 15.6 8.6 4.3 47 5.3 NW 30 44 16 24 1013.1 1013.1 0.0
24/01:00pm 16.0 9.7 3.8 44 5.7 NW 26 35 14 19 1013.5 1013.5 0.0
24/12:30pm 16.0 8.8 3.1 42 5.9 NNW 30 41 16 22 1013.9 1014.0 0.0
24/12:00pm 14.5 8.7 4.5 51 4.7 N 24 30 13 16 1014.3 1014.4 0.0
24/11:30am 14.4 9.7 5.0 53 4.4 NNW 19 26 10 14 1015.2 1015.3 0.0
24/11:00am 14.5 9.8 5.3 54 4.3 NNW 19 28 10 15 1015.8 1015.9 0.0
24/10:30am 13.5 9.3 5.7 59 3.7 NNW 17 22 9 12 1015.9 1016.0 0.0
24/10:00am 13.1 8.6 6.0 62 3.4 NNW 19 24 10 13 1016.0 1016.1 0.0
24/09:30am 12.1 7.5 5.5 64 3.1 N 19 26 10 14 1015.6 1015.7 0.0
24/09:00am 10.6 6.3 5.4 70 2.4 N 17 22 9 12 1016.0 1016.1 0.0
24/08:30am 8.8 4.8 5.0 77 1.7 N 15 20 8 11 1015.8 1015.9 0.0
24/08:00am 7.8 3.8 4.9 82 1.3 N 15 20 8 11 1016.0 1016.1 0.0
24/07:30am 7.1 3.0 4.6 84 1.1 N 15 17 8 9 1015.9 1016.0 0.0
24/07:00am 7.3 3.7 5.1 86 1.0 N 13 15 7 8 1015.9 1016.0 0.0
24/06:30am 6.8 3.2 5.0 88 0.8 N 13 15 7 8 1015.7 1015.8 0.0
24/06:00am 6.5 3.3 5.0 90 0.7 N 11 15 6 8 1015.2 1015.3 0.0
24/05:30am 4.6 1.8 3.1 90 0.6 N 7 11 4 6 1015.2 1015.3 0.0
24/05:00am 5.5 2.1 4.2 91 0.6 NNE 11 13 6 7 1014.9 1015.0 0.0
24/04:30am 5.6 2.6 3.9 89 0.7 NNE 9 11 5 6 1015.0 1015.1 0.0
24/04:00am 6.0 3.0 4.3 89 0.7 N 9 11 5 6 1015.0 1015.1 0.0
24/03:30am 6.1 3.1 4.1 87 0.9 N 9 9 5 5 1015.3 1015.4 0.0
24/03:00am 6.9 4.5 4.2 83 1.2 N 6 7 3 4 1015.1 1015.2 0.0
24/02:30am 7.8 4.6 4.9 82 1.3 NNW 11 11 6 6 1015.8 1015.9 0.0
24/02:00am 7.6 4.0 5.2 85 1.1 NW 13 13 7 7 1016.2 1016.3 0.0
24/01:30am 6.9 3.3 4.9 87 0.9 NNW 13 13 7 7 1016.4 1016.5 0.0
24/01:00am 7.3 4.4 4.8 84 1.1 NNE 9 11 5 6 1016.1 1016.2 0.0
24/12:30am 8.9 6.0 4.9 76 1.8 N 9 11 5 6 1015.9 1016.0 0.0
24/12:00am 9.3 6.1 5.1 75 1.9 N 11 15 6 8 1016.3 1016.4 0.0
 
Date/Time
EST
Temp
°C
App
Temp
°C
Dew
Point
°C
Rel
Hum
%
Delta-T
°C
Wind Press
QNH
hPa
Press
MSL
hPa
Rain since
9am
mm
Dir  Spd
km/h
Gust
km/h
Spd
kts
Gust
kts
23/11:30pm 8.9 6.1 5.1 77 1.7 N 9 11 5 6 1016.7 1016.8 0.0
23/11:00pm 8.9 5.4 5.5 79 1.5 N 13 15 7 8 1016.9 1017.0 0.0
23/10:30pm 8.7 5.6 5.4 80 1.5 NNW 11 13 6 7 1017.0 1017.1 0.0
23/10:00pm 8.1 5.4 5.4 83 1.2 N 9 11 5 6 1017.0 1017.1 0.0
23/09:30pm 8.3 4.9 5.9 85 1.1 N 13 13 7 7 1017.1 1017.2 0.0
23/09:00pm 7.2 6.2 5.5 89 0.8 CALM 0 0 0 0 1016.9 1017.0 0.0
23/08:30pm 7.5 6.5 5.6 88 0.9 CALM 0 0 0 0 1016.6 1016.7 0.0
23/08:00pm 8.1 7.1 5.7 85 1.1 CALM 0 0 0 0 1016.6 1016.7 0.0
23/07:30pm 8.9 6.9 6.3 84 1.2 W 6 7 3 4 1016.5 1016.6 0.0
23/07:00pm 8.9 6.9 6.2 83 1.2 W 6 6 3 3 1016.3 1016.4 0.0
23/06:30pm 9.4 7.2 5.2 75 1.9 W 6 7 3 4 1015.7 1015.8 0.0
23/06:00pm 10.6 8.4 5.2 69 2.5 W 6 7 3 4 1015.8 1015.9 0.0
23/05:30pm 12.3 9.5 5.0 61 3.4 W 9 11 5 6 1015.9 1016.0 0.0
23/05:00pm 13.7 10.3 4.0 52 4.4 W 11 15 6 8 1015.6 1015.7 0.0
23/04:30pm 14.9 11.1 3.7 47 5.1 W 13 20 7 11 1015.6 1015.7 0.0
23/04:00pm 14.6 10.4 4.0 49 4.9 WSW 15 22 8 12 1015.4 1015.5 0.0
23/03:30pm 15.8 10.8 3.6 44 5.6 SW 19 24 10 13 1015.5 1015.6 0.0
23/03:00pm 15.6 10.8 4.6 48 5.2 WSW 19 24 10 13 1015.4 1015.5 0.0
23/02:30pm 15.2 10.1 4.3 48 5.1 W 20 28 11 15 1015.1 1015.2 0.0
23/02:00pm 14.7 10.0 5.0 52 4.6 WSW 19 26 10 14 1015.1 1015.2 0.0
23/01:30pm 14.8 9.3 4.2 49 4.9 SW 22 30 12 16 1015.3 1015.4 0.0
23/01:00pm 14.6 9.5 4.3 50 4.8 WSW 20 32 11 17 1015.5 1015.6 0.0
23/12:30pm 14.5 8.8 4.8 52 4.5 SW 24 35 13 19 1015.5 1015.6 0.0
23/12:00pm 14.3 8.2 4.9 53 4.4 SW 26 37 14 20 1015.6 1015.7 0.0
23/11:30am 13.9 8.3 5.3 56 4.1 SW 24 41 13 22 1015.8 1015.9 0.0
23/11:00am 13.6 7.6 5.5 58 3.8 SW 26 35 14 19 1016.0 1016.1 0.0
23/10:30am 13.0 7.4 5.2 59 3.6 WSW 24 35 13 19 1015.9 1016.0 0.0
23/10:00am 12.4 5.8 4.4 58 3.6 W 28 35 15 19 1015.8 1015.9 0.0
23/09:30am 11.9 4.6 4.6 61 3.3 W 32 43 17 23 1015.5 1015.6 0.0
23/09:00am 11.2 4.7 4.7 64 3.0 W 28 35 15 19 1015.5 1015.6 0.2
23/08:30am 10.3 4.1 4.2 66 2.7 WNW 26 37 14 20 1015.0 1015.1 0.2
23/08:00am 9.3 3.8 4.1 70 2.3 WNW 22 30 12 16 1014.5 1014.6 0.2
23/07:30am 8.0 3.1 4.0 76 1.7 WNW 19 24 10 13 1013.9 1014.0 0.2
23/07:00am 8.3 3.1 3.8 73 2.0 WNW 20 24 11 13 1013.6 1013.6 0.2
23/06:30am 8.5 3.5 3.8 72 2.0 WNW 19 22 10 12 1013.2 1013.2 0.2
23/06:00am 8.7 4.1 3.7 71 2.2 WNW 17 24 9 13 1012.6 1012.7 0.2
23/05:30am 9.1 4.1 3.5 68 2.4 W 19 24 10 13 1012.2 1012.3 0.2
23/05:00am 9.6 4.0 3.6 66 2.6 W 22 30 12 16 1011.8 1011.9 0.2
23/04:30am 10.0 3.7 3.5 64 2.8 W 26 35 14 19 1011.6 1011.7 0.2
23/04:00am 10.4 4.0 3.2 61 3.1 WSW 26 32 14 17 1011.5 1011.6 0.2
23/03:30am 11.0 3.9 3.3 59 3.4 WSW 30 41 16 22 1011.4 1011.5 0.2
23/03:00am 12.1 4.0 3.3 55 3.9 WSW 35 54 19 29 1011.1 1011.2 0.2
23/02:47am 12.3 5.6 3.8 56 3.8 W 28 46 15 25 1010.9 1011.0 0.2
23/02:30am 12.0 7.0 4.5 60 3.4 W 20 28 11 15 1010.8 1010.9 0.2
23/02:00am 12.8 7.4 4.3 56 3.9 WSW 22 32 12 17 1010.8 1010.9 0.2
23/01:30am 13.7 7.4 3.8 51 4.5 WSW 26 39 14 21 1010.5 1010.6 0.2
23/01:00am 14.4 7.4 4.1 50 4.8 W 30 37 16 20 1009.7 1009.8 0.2
23/12:30am 14.7 7.8 4.4 50 4.8 W 30 35 16 19 1009.3 1009.4 0.2
23/12:00am 14.8 8.4 5.1 52 4.6 W 28 37 15 20 1009.2 1009.3 0.2
 
Date/Time
EST
Temp
°C
App
Temp
°C
Dew
Point
°C
Rel
Hum
%
Delta-T
°C
Wind Press
QNH
hPa
Press
MSL
hPa
Rain since
9am
mm
Dir  Spd
km/h
Gust
km/h
Spd
kts
Gust
kts
22/11:30pm 15.4 9.1 5.9 53 4.6 W 28 39 15 21 1009.1 1009.2 0.2
22/11:00pm 15.9 8.9 5.8 51 4.9 WSW 32 41 17 22 1009.1 1009.2 0.2
22/10:30pm 16.1 10.7 6.3 52 4.8 W 24 37 13 20 1008.7 1008.8 0.2
22/10:00pm 16.9 10.7 6.1 49 5.3 W 28 43 15 23 1008.2 1008.3 0.2
22/09:30pm 17.6 11.5 6.8 49 5.4 W 28 48 15 26 1007.8 1007.9 0.2
22/09:05pm 18.4 11.0 6.9 47 5.8 W 35 54 19 29 1007.5 1007.6 0.2
22/09:00pm 18.7 11.0 6.9 46 6.0 W 37 54 20 29 1007.4 1007.5 0.2
22/08:38pm 19.0 13.7 9.8 55 4.9 W 28 46 15 25 1007.1 1007.2 0.2
22/08:30pm 19.1 13.6 10.4 57 4.7 W 30 44 16 24 1006.9 1007.0 0.2
22/08:00pm 19.4 15.2 12.4 64 3.9 W 26 33 14 18 1006.2 1006.3 0.2
22/07:30pm 19.6 16.5 13.3 67 3.6 W 22 30 12 16 1005.6 1005.7 0.2
22/07:00pm 19.8 18.0 14.4 71 3.2 W 17 19 9 10 1005.3 1005.4 0.2
22/06:30pm 20.4 18.5 14.1 67 3.7 WNW 17 20 9 11 1004.7 1004.7 0.2
22/06:00pm 20.7 18.8 14.1 66 3.9 W 17 20 9 11 1004.7 1004.7 0.2
22/05:30pm 21.3 19.0 14.0 63 4.3 WNW 19 24 10 13 1004.3 1004.3 0.2
22/05:00pm 21.6 19.6 13.8 61 4.6 WNW 17 22 9 12 1004.1 1004.1 0.2
22/04:30pm 22.5 19.5 13.6 57 5.2 W 22 28 12 15 1004.5 1004.5 0.2
22/04:00pm 24.3 18.8 12.3 47 6.9 WNW 33 44 18 24 1004.3 1004.3 0.2
22/03:30pm 24.9 19.4 11.8 44 7.5 WNW 32 50 17 27 1004.2 1004.2 0.2
22/03:02pm 25.5 19.5 12.0 43 7.8 WNW 35 54 19 29 1004.0 1004.0 0.2
22/03:00pm 25.6 19.2 12.1 43 7.8 WNW 37 54 20 29 1004.0 1004.0 0.2
22/02:50pm 26.0 20.7 12.5 43 7.8 NW 32 50 17 27 1004.0 1004.0 0.2
22/02:30pm 25.9 21.0 13.7 47 7.2 NW 32 44 17 24 1004.2 1004.2 0.2
22/02:00pm 26.1 20.2 14.6 49 6.9 NW 39 57 21 31 1004.6 1004.6 0.2
22/01:49pm 26.0 19.8 13.8 47 7.2 NW 39 57 21 31 1004.4 1004.4 0.2
22/01:30pm 26.1 20.6 14.6 49 6.9 NW 37 52 20 28 1004.6 1004.6 0.2
22/01:11pm 25.6 20.2 15.0 52 6.4 NW 37 56 20 30 1005.2 1005.3 0.2
22/01:00pm 25.4 19.9 14.8 52 6.4 NW 37 54 20 29 1005.5 1005.6 0.2
22/12:30pm 25.1 19.8 15.4 55 5.9 NNW 37 54 20 29 1006.1 1006.2 0.2
22/12:00pm 24.5 19.5 16.0 59 5.2 NW 37 56 20 30 1007.1 1007.2 0.2
22/11:57am 24.2 18.8 14.9 56 5.6 NW 37 56 20 30 1007.1 1007.2 0.2
22/11:30am 23.7 19.1 16.0 62 4.7 NNW 35 46 19 25 1007.6 1007.7 0.2
22/11:00am 22.9 18.8 16.0 65 4.2 NW 32 48 17 26 1008.1 1008.2 0.2
22/10:30am 22.0 17.8 15.6 67 3.8 NNW 32 43 17 23 1008.2 1008.3 0.0
22/10:00am 21.3 18.0 16.0 72 3.2 NNW 28 39 15 21 1008.8 1008.9 0.0
22/09:30am 20.3 16.7 15.3 73 3.0 NNW 28 37 15 20 1008.8 1008.9 0.0
22/09:00am 19.3 17.4 15.8 80 2.1 N 20 28 11 15 1009.0 1009.1 0.2
22/08:30am 18.1 16.3 15.5 85 1.5 N 19 26 10 14 1009.3 1009.4 0.2
22/08:00am 17.3 15.5 15.6 90 1.0 N 19 28 10 15 1009.5 1009.6 0.2
22/07:30am 16.7 15.2 15.4 92 0.8 N 17 24 9 13 1009.6 1009.7 0.2
22/07:00am 16.6 15.1 15.3 92 0.8 N 17 24 9 13 1009.7 1009.8 0.2
22/06:30am 16.8 15.4 15.5 92 0.8 N 17 24 9 13 1009.8 1009.9 0.2
22/06:00am 17.0 15.3 15.7 92 0.8 N 19 24 10 13 1009.8 1009.9 0.2
22/05:30am 17.0 15.7 15.7 92 0.8 N 17 20 9 11 1009.8 1009.9 0.2
22/05:00am 17.2 16.0 16.1 93 0.7 N 17 24 9 13 1010.1 1010.2 0.2
22/04:30am 17.4 15.7 16.3 93 0.7 N 20 28 11 15 1010.3 1010.4 0.2
22/04:00am 17.2 15.5 16.2 94 0.6 N 20 26 11 14 1010.4 1010.5 0.2
22/03:30am 17.4 15.9 16.4 94 0.6 N 19 26 10 14 1010.9 1011.0 0.2
22/03:00am 17.4 15.8 16.6 95 0.5 N 20 26 11 14 1010.9 1011.0 0.2
22/02:30am 17.3 15.2 16.3 94 0.6 N 22 32 12 17 1011.3 1011.4 0.2
22/02:00am 17.5 15.9 16.5 94 0.6 N 20 30 11 16 1011.9 1012.0 0.0
22/01:30am 17.6 16.0 16.6 94 0.6 N 20 32 11 17 1012.3 1012.4 0.0
22/01:00am 17.1 15.5 16.1 94 0.6 NNE 19 22 10 12 1012.5 1012.6 0.0
22/12:30am 17.3 16.2 16.3 94 0.6 NNE 17 24 9 13 1013.1 1013.1 0.0
22/12:00am 17.3 16.3 16.5 95 0.5 NNE 17 26 9 14 1013.1 1013.1 0.0
 
Date/Time
EST
Temp
°C
App
Temp
°C
Dew
Point
°C
Rel
Hum
%
Delta-T
°C
Wind Press
QNH
hPa
Press
MSL
hPa
Rain since
9am
mm
Dir  Spd
km/h
Gust
km/h
Spd
kts
Gust
kts
21/11:30pm 17.0 15.8 16.2 95 0.5 NNE 17 22 9 12 1013.4 1013.4 0.0
21/11:00pm 16.5 15.9 15.7 95 0.5 NE 13 17 7 9 1013.8 1013.9 0.0
21/10:30pm 16.6 16.1 15.8 95 0.5 NE 13 15 7 8 1013.9 1014.0 0.0
21/10:00pm 16.5 15.8 15.5 94 0.6 NE 13 17 7 9 1013.7 1013.8 0.0
21/09:30pm 16.7 16.5 15.7 94 0.6 NE 11 13 6 7 1014.1 1014.2 0.0
21/09:00pm 16.8 16.3 15.8 94 0.6 NE 13 15 7 8 1014.3 1014.4 0.0
21/08:30pm 17.0 16.9 15.9 93 0.7 ENE 11 13 6 7 1014.3 1014.4 0.0
21/08:00pm 17.5 17.8 16.0 91 0.9 ESE 9 11 5 6 1014.4 1014.5 0.0
21/07:30pm 18.1 20.3 16.6 91 0.9 CALM 0 0 0 0 1014.9 1015.0 0.0
21/07:00pm 18.1 20.3 16.4 90 1.0 CALM 0 0 0 0 1014.9 1015.0 0.0
21/06:30pm 18.2 19.1 16.5 90 1.0 NNW 7 11 4 6 1014.9 1015.0 0.0
21/06:00pm 18.3 18.3 16.3 88 1.2 N 11 13 6 7 1014.6 1014.7 0.0
21/05:30pm 18.6 19.0 16.4 87 1.3 NNW 9 13 5 7 1014.2 1014.3 0.0
21/05:00pm 18.7 19.4 16.1 85 1.6 N 7 9 4 5 1014.2 1014.3 0.0
21/04:30pm 18.6 18.5 16.0 85 1.5 N 11 17 6 9 1014.2 1014.3 0.0
21/04:00pm 18.9 18.8 16.0 83 1.7 N 11 17 6 9 1014.6 1014.7 0.0
21/03:30pm 19.2 19.5 16.1 82 1.9 NNW 9 15 5 8 1014.8 1014.9 0.0
21/03:00pm 19.2 19.9 16.1 82 1.9 NNW 7 13 4 7 1015.0 1015.1 0.0

Other Formats:

Comma delimited format used in spreadsheet applications
http://www.bom.gov.au/fwo/IDN60801/IDN60801.95695.axf

JavaScript Object Notation format (JSON) in row-major order
http://www.bom.gov.au/fwo/IDN60801/IDN60801.95695.json